Terminal Aerodrome Forecast
Issued by NWS Twin Cities, MN

Home | Current Version | Previous Version | Graphics & Text | Print | Product List | Glossary On
Versions: 1 2 3 4 5 6 7 8 9 10 11 12 13 14 15 16 17 18 19 20 21 22 23 24 25
351
FTUS43 KMPX 221135
TAFMSP
TAF
KMSP 221135Z 2212/2318 27010KT P6SM SCT200
     FM221600 27015G24KT P6SM SKC
     FM230000 20007KT P6SM BKN100
     FM231500 29016G25KT P6SM BKN080=

USA.gov is the U.S. government's official web portal to all federal, state and local government web resources and services.